createdAt,value
2019-03-22T00:00:50.214Z,2.37
2019-03-22T00:02:50.399Z,2.32
2019-03-22T00:04:49.873Z,2.31
2019-03-22T00:06:50.300Z,2.31
2019-03-22T00:08:50.523Z,2.29
2019-03-22T00:10:50.639Z,2.25
2019-03-22T00:12:49.802Z,2.21
2019-03-22T00:14:50.032Z,2.21
2019-03-22T00:16:50.343Z,2.20
2019-03-22T00:18:50.470Z,2.18
2019-03-22T00:20:50.557Z,2.21
2019-03-22T00:22:50.759Z,2.26
2019-03-22T00:24:49.818Z,2.24
2019-03-22T00:26:50.116Z,2.21
2019-03-22T00:28:50.276Z,2.18
2019-03-22T00:30:50.494Z,2.15
2019-03-22T00:32:50.658Z,2.09
2019-03-22T00:34:50.343Z,2.06
2019-03-22T00:36:50.709Z,2.03
2019-03-22T00:38:49.909Z,2.03
2019-03-22T00:40:50.100Z,2.02
2019-03-22T00:42:50.316Z,2.02
2019-03-22T00:44:50.456Z,1.99
2019-03-22T00:46:49.873Z,2.01
2019-03-22T00:48:49.997Z,2.02
2019-03-22T00:50:50.147Z,2.02
2019-03-22T00:52:50.424Z,2.02
2019-03-22T00:54:50.629Z,1.97
2019-03-22T00:56:49.841Z,1.90
2019-03-22T00:58:50.030Z,1.86
2019-03-22T01:00:52.808Z,1.79
2019-03-22T01:02:49.931Z,1.76
2019-03-22T01:04:50.331Z,1.71
2019-03-22T01:06:50.485Z,1.69
2019-03-22T01:08:50.580Z,1.66
2019-03-22T01:10:49.819Z,1.66
2019-03-22T01:12:49.914Z,1.63
2019-03-22T01:14:50.129Z,1.57
2019-03-22T01:16:50.299Z,1.54
2019-03-22T01:18:50.418Z,1.54
2019-03-22T01:20:50.473Z,1.48
2019-03-22T01:22:50.686Z,1.46
2019-03-22T01:24:49.848Z,1.44
2019-03-22T01:26:50.261Z,1.39
2019-03-22T01:28:50.345Z,1.33
2019-03-22T01:30:50.408Z,1.31
2019-03-22T01:32:50.546Z,1.28
2019-03-22T01:34:49.993Z,1.28
2019-03-22T01:36:50.283Z,1.28
2019-03-22T01:38:50.429Z,1.27
2019-03-22T01:40:50.542Z,1.23
2019-03-22T01:42:50.623Z,1.24
2019-03-22T01:44:49.751Z,1.23
2019-03-22T01:46:49.872Z,1.19
2019-03-22T01:48:49.943Z,1.13
2019-03-22T01:50:49.948Z,1.12
2019-03-22T01:52:50.401Z,1.08
2019-03-22T01:54:50.439Z,1.04
2019-03-22T01:56:50.620Z,1.02
2019-03-22T01:58:49.748Z,0.99
2019-03-22T02:00:49.746Z,0.94
2019-03-22T02:02:49.994Z,0.87
2019-03-22T02:04:50.478Z,0.85
2019-03-22T02:06:49.766Z,0.80
2019-03-22T02:08:49.836Z,0.75
2019-03-22T02:10:49.901Z,0.73
2019-03-22T02:12:50.025Z,0.68
2019-03-22T02:14:50.444Z,0.66
2019-03-22T02:16:50.497Z,0.65
2019-03-22T02:18:50.640Z,0.65
2019-03-22T02:20:49.825Z,0.63
2019-03-22T02:22:50.040Z,0.63
2019-03-22T02:24:50.266Z,0.58
2019-03-22T02:26:50.559Z,0.55
2019-03-22T02:28:50.647Z,0.52
2019-03-22T02:30:49.760Z,0.49
2019-03-22T02:32:49.989Z,0.48
2019-03-22T02:34:50.503Z,0.44
2019-03-22T02:36:49.984Z,0.41
2019-03-22T02:38:50.060Z,0.38
2019-03-22T02:40:50.173Z,0.38
2019-03-22T02:42:50.326Z,0.37
2019-03-22T02:44:50.446Z,0.37
2019-03-22T02:46:49.781Z,0.33
2019-03-22T02:48:49.780Z,0.31
2019-03-22T02:50:49.905Z,0.27
2019-03-22T02:52:49.924Z,0.24
2019-03-22T02:54:50.029Z,0.21
2019-03-22T02:56:50.483Z,0.19
2019-03-22T02:58:50.619Z,0.17
2019-03-22T03:00:50.683Z,0.18
2019-03-22T03:02:49.820Z,0.21
2019-03-22T03:04:50.313Z,0.21
2019-03-22T03:06:50.501Z,0.17
2019-03-22T03:08:50.228Z,0.17
2019-03-22T03:10:50.353Z,0.19
2019-03-22T03:12:50.462Z,0.14
2019-03-22T03:14:50.462Z,0.09
2019-03-22T03:16:50.632Z,0.08
2019-03-22T03:18:49.716Z,0.06
2019-03-22T03:20:49.816Z,0.03
2019-03-22T03:22:49.987Z,0.01
2019-03-22T06:00:50.654Z,0.02
2019-03-22T06:02:49.770Z,0.12
2019-03-22T06:04:50.403Z,0.18
2019-03-22T06:06:50.544Z,0.23
2019-03-22T06:08:50.632Z,0.32
2019-03-22T06:10:49.686Z,0.43
2019-03-22T06:12:50.649Z,0.55
2019-03-22T06:14:49.763Z,0.65
2019-03-22T06:16:50.024Z,0.77
2019-03-22T06:18:50.883Z,0.87
2019-03-22T06:20:49.921Z,1.01
2019-03-22T06:22:49.981Z,1.10
2019-03-22T06:24:50.032Z,1.28
2019-03-22T06:26:50.296Z,1.47
2019-03-22T06:28:50.381Z,1.62
2019-03-22T06:30:50.388Z,1.78
2019-03-22T06:32:50.464Z,1.97
2019-03-22T06:34:49.878Z,1.97
2019-03-22T06:36:50.524Z,2.0
2019-03-22T06:38:50.621Z,2.2
2019-03-22T06:40:49.774Z,2.2
2019-03-22T06:42:49.805Z,2.2
2019-03-22T06:44:49.817Z,2.2
2019-03-22T06:46:50.150Z,2.4
2019-03-22T06:48:50.213Z,2.5
2019-03-22T06:50:50.277Z,2.6
2019-03-22T06:52:52.459Z,2.7
2019-03-22T06:54:50.493Z,2.7
2019-03-22T06:56:49.747Z,2.8
2019-03-22T06:58:49.858Z,3.0
2019-03-22T07:00:50.064Z,3.1
2019-03-22T07:02:50.178Z,3.2
2019-03-22T07:04:50.620Z,3.2
2019-03-22T07:06:49.890Z,3.4
2019-03-22T07:08:50.039Z,3.5
2019-03-22T07:10:50.147Z,3.5
2019-03-22T07:12:50.264Z,3.6
2019-03-22T07:14:50.375Z,3.7
2019-03-22T07:16:50.565Z,3.8
2019-03-22T07:18:50.674Z,4.0
2019-03-22T07:20:49.798Z,4.0
2019-03-22T07:22:49.985Z,4.1
2019-03-22T07:24:50.080Z,4.3
2019-03-22T07:26:50.240Z,4.4
2019-03-22T07:28:50.359Z,4.5
2019-03-22T07:30:50.407Z,4.5
2019-03-22T07:32:50.437Z,4.7
2019-03-22T07:34:49.840Z,4.8
2019-03-22T07:36:50.043Z,4.9
2019-03-22T07:38:50.108Z,5.1
2019-03-22T07:40:50.181Z,5.1
2019-03-22T07:42:50.301Z,5.2
2019-03-22T07:44:50.397Z,5.4
2019-03-22T07:46:50.625Z,5.6
2019-03-22T07:48:50.650Z,5.7
2019-03-22T07:50:49.774Z,5.7
2019-03-22T07:52:49.770Z,5.8
2019-03-22T07:54:49.869Z,5.9
2019-03-22T07:56:50.130Z,6.2
2019-03-22T07:58:50.213Z,6.2
2019-03-22T08:00:50.300Z,6.2
2019-03-22T08:02:50.319Z,6.3
2019-03-22T08:04:50.576Z,6.6
2019-03-22T08:06:49.856Z,6.7
2019-03-22T08:08:49.886Z,6.7
2019-03-22T08:10:50.141Z,6.8
2019-03-22T08:12:50.376Z,6.9
2019-03-22T08:14:50.508Z,7.1
2019-03-22T08:16:50.791Z,7.3
2019-03-22T08:18:49.873Z,7.3
2019-03-22T08:20:49.982Z,7.4
2019-03-22T08:22:50.034Z,7.6
2019-03-22T08:24:50.122Z,7.6
2019-03-22T08:26:50.338Z,7.9
2019-03-22T08:28:50.544Z,7.9
2019-03-22T08:30:49.810Z,8.0
2019-03-22T08:32:50.997Z,8.2
2019-03-22T08:34:50.556Z,8.3
2019-03-22T08:36:49.858Z,8.4
2019-03-22T08:38:50.017Z,8.4
2019-03-22T08:40:50.160Z,8.6
2019-03-22T08:42:50.274Z,8.8
2019-03-22T08:44:50.248Z,8.9
2019-03-22T08:46:50.512Z,9.0
2019-03-22T08:48:50.735Z,9.0
2019-03-22T08:50:49.826Z,9.2
2019-03-22T08:52:49.960Z,9.3
2019-03-22T08:54:50.045Z,9.5
2019-03-22T08:56:50.314Z,9.6
2019-03-22T08:58:50.483Z,9.6
2019-03-22T09:00:58.501Z,9.7
2019-03-22T09:02:50.619Z,9.8
2019-03-22T09:04:50.079Z,10.0
2019-03-22T09:06:50.508Z,10.1
2019-03-22T09:08:50.540Z,10.1
2019-03-22T09:10:50.649Z,10.3
2019-03-22T09:12:49.802Z,10.4
2019-03-22T09:14:49.864Z,10.4
2019-03-22T09:16:50.129Z,10.5
2019-03-22T09:18:50.232Z,10.6
2019-03-22T09:20:50.399Z,10.8
2019-03-22T09:22:50.699Z,11.0
2019-03-22T09:24:49.869Z,11.0
2019-03-22T09:26:50.156Z,11.0
2019-03-22T09:28:50.349Z,11.2
2019-03-22T09:30:50.516Z,11.3
2019-03-22T09:32:50.681Z,11.5
2019-03-22T09:34:50.337Z,11.5
2019-03-22T09:36:50.677Z,11.7
2019-03-22T09:38:49.904Z,11.8
2019-03-22T09:40:50.006Z,11.9
2019-03-22T09:42:53.622Z,12.1
2019-03-22T09:44:50.740Z,12.1
2019-03-22T09:46:49.980Z,12.3
2019-03-22T09:48:50.160Z,12.6
2019-03-22T09:50:50.390Z,12.6
2019-03-22T09:52:50.385Z,12.8
2019-03-22T09:54:50.473Z,12.8
2019-03-22T09:56:50.675Z,13.0
2019-03-22T09:58:49.835Z,13.1
2019-03-22T10:00:50.403Z,13.2
2019-03-22T10:02:50.591Z,13.4
2019-03-22T10:04:50.378Z,13.4
2019-03-22T10:06:50.751Z,13.4
2019-03-22T10:08:49.938Z,13.6
2019-03-22T10:10:50.193Z,13.6
2019-03-22T10:12:50.490Z,13.7
2019-03-22T10:14:50.685Z,13.7
2019-03-22T10:16:50.028Z,13.8
2019-03-22T10:18:50.153Z,13.8
2019-03-22T10:20:50.271Z,13.8
2019-03-22T10:22:50.532Z,13.9
2019-03-22T10:24:50.646Z,14.0
2019-03-22T10:26:49.945Z,14.1
2019-03-22T10:28:50.142Z,14.2
2019-03-22T10:30:50.401Z,14.2
2019-03-22T10:32:50.638Z,14.2
2019-03-22T10:34:50.136Z,14.2
2019-03-22T10:36:50.724Z,14.3
2019-03-22T10:38:51.004Z,14.4
2019-03-22T10:40:50.117Z,14.4
2019-03-22T10:42:50.268Z,14.4
2019-03-22T10:44:50.662Z,14.5
2019-03-22T10:46:50.114Z,14.5
2019-03-22T10:48:50.306Z,14.6
2019-03-22T10:50:50.461Z,14.6
2019-03-22T10:52:50.592Z,14.6
2019-03-22T10:54:49.820Z,14.7
2019-03-22T10:56:50.119Z,14.7
2019-03-22T10:58:50.242Z,14.7
2019-03-22T11:00:50.419Z,14.7
2019-03-22T11:02:50.049Z,14.8
2019-03-22T11:04:50.449Z,14.8
2019-03-22T11:06:50.607Z,14.8
2019-03-22T11:08:49.787Z,14.8
2019-03-22T11:10:49.839Z,14.8
2019-03-22T11:12:49.944Z,14.8
2019-03-22T11:14:50.109Z,14.8
2019-03-22T11:16:50.287Z,14.9
2019-03-22T11:18:50.410Z,14.9
2019-03-22T11:20:50.446Z,14.9
2019-03-22T11:22:50.574Z,15.0
2019-03-22T11:24:50.766Z,15.0
2019-03-22T11:26:50.103Z,15.0
2019-03-22T11:28:50.378Z,15.0
2019-03-22T11:30:50.509Z,15.0
2019-03-22T11:32:50.680Z,15.1
2019-03-22T11:34:50.183Z,15.1
2019-03-22T11:36:50.456Z,15.2
2019-03-22T11:38:50.450Z,15.2
2019-03-22T11:40:50.432Z,15.3
2019-03-22T11:42:51.838Z,15.3
2019-03-22T11:44:49.895Z,15.4
2019-03-22T11:46:50.192Z,15.4
2019-03-22T11:48:50.250Z,15.4
2019-03-22T11:50:50.400Z,15.5
2019-03-22T11:52:50.537Z,15.6
2019-03-22T11:54:50.566Z,15.8
2019-03-22T11:56:49.736Z,15.8
2019-03-22T11:58:49.781Z,15.8
2019-03-22T12:00:49.959Z,15.9
2019-03-22T12:02:49.973Z,16.0
2019-03-22T12:04:50.393Z,16.0
2019-03-22T12:06:50.505Z,16.1
2019-03-22T12:08:50.557Z,16.1
2019-03-22T12:10:50.580Z,16.1
2019-03-22T12:12:49.708Z,16.2
2019-03-22T12:14:49.759Z,16.2
2019-03-22T12:16:49.904Z,16.2
2019-03-22T12:18:50.783Z,16.3
2019-03-22T12:20:49.881Z,16.4
2019-03-22T12:22:49.969Z,16.4
2019-03-22T12:24:50.063Z,16.4
2019-03-22T12:26:50.353Z,16.5
2019-03-22T12:28:50.388Z,16.5
2019-03-22T12:30:50.467Z,16.6
2019-03-22T12:32:50.490Z,16.6
2019-03-22T12:34:50.095Z,16.6
2019-03-22T12:36:50.298Z,16.7
2019-03-22T12:38:50.270Z,16.7
2019-03-22T12:40:50.402Z,16.8
2019-03-22T12:42:50.539Z,16.8
2019-03-22T12:44:50.606Z,16.8
2019-03-22T12:46:49.727Z,16.9
2019-03-22T12:48:49.829Z,16.9
2019-03-22T12:50:49.850Z,17.0
2019-03-22T12:52:49.983Z,17.0
2019-03-22T12:54:49.964Z,17.0
2019-03-22T12:56:50.091Z,17.0
2019-03-22T12:58:50.101Z,17.1
2019-03-22T13:00:50.175Z,17.1
2019-03-22T13:02:50.244Z,17.1
2019-03-22T13:04:49.744Z,17.1
2019-03-22T13:06:49.983Z,17.1
2019-03-22T13:08:50.091Z,17.3
2019-03-22T13:10:50.184Z,17.3
2019-03-22T13:12:50.260Z,17.4
2019-03-22T13:14:50.309Z,17.4
2019-03-22T13:16:50.440Z,17.4
2019-03-22T13:18:50.860Z,17.5
2019-03-22T13:20:51.487Z,17.5
2019-03-22T13:22:50.558Z,17.6
2019-03-22T13:24:50.670Z,17.6
2019-03-22T13:26:50.107Z,17.6
2019-03-22T13:28:50.189Z,17.7
2019-03-22T13:30:50.189Z,17.7
2019-03-22T13:32:52.629Z,17.7
2019-03-22T13:34:50.063Z,17.7
2019-03-22T13:36:50.264Z,17.8
2019-03-22T13:38:50.455Z,17.8
2019-03-22T13:40:50.652Z,17.8
2019-03-22T13:42:49.737Z,17.8
2019-03-22T13:44:50.409Z,17.9
2019-03-22T13:46:50.307Z,17.9
2019-03-22T13:48:50.388Z,18.0
2019-03-22T13:50:50.363Z,18.0
2019-03-22T13:52:50.682Z,18.1
2019-03-22T13:54:49.809Z,18.1
2019-03-22T13:56:50.086Z,18.2
2019-03-22T13:58:50.206Z,18.2
2019-03-22T14:00:50.326Z,18.2
2019-03-22T14:02:50.437Z,18.2
2019-03-22T14:04:50.086Z,18.2
2019-03-22T14:06:50.412Z,18.2
2019-03-22T14:08:50.427Z,18.2
2019-03-22T14:10:50.464Z,18.2
2019-03-22T14:12:50.544Z,18.3
2019-03-22T14:14:50.576Z,18.4
2019-03-22T14:16:49.694Z,18.4
2019-03-22T14:18:49.822Z,18.4
2019-03-22T14:20:49.899Z,18.4
2019-03-22T14:22:49.951Z,18.4
2019-03-22T14:24:50.561Z,18.4
2019-03-22T14:26:50.250Z,18.4
2019-03-22T14:28:50.350Z,18.4
2019-03-22T14:30:50.388Z,18.5
2019-03-22T14:32:50.423Z,18.5
2019-03-22T14:34:49.880Z,18.5
2019-03-22T14:36:50.123Z,18.5
2019-03-22T14:38:50.189Z,18.5
2019-03-22T14:40:50.396Z,18.5
2019-03-22T14:42:50.438Z,18.5
2019-03-22T14:44:50.450Z,18.6
2019-03-22T14:46:49.767Z,18.6
2019-03-22T14:48:50.796Z,18.5
2019-03-22T14:50:50.657Z,18.6
2019-03-22T14:52:49.721Z,18.6
2019-03-22T14:54:49.739Z,18.6
2019-03-22T14:56:49.922Z,18.6
2019-03-22T14:58:49.916Z,18.6
2019-03-22T15:00:50.213Z,18.6
2019-03-22T15:02:50.306Z,18.6
2019-03-22T15:04:49.830Z,18.6
2019-03-22T15:06:50.041Z,18.6
2019-03-22T15:08:50.076Z,18.6
2019-03-22T15:10:50.218Z,18.6
2019-03-22T15:12:50.366Z,18.6
2019-03-22T15:14:50.419Z,18.6
2019-03-22T15:16:50.536Z,18.6
2019-03-22T15:18:49.702Z,18.6
2019-03-22T15:20:49.800Z,18.7
2019-03-22T15:22:49.890Z,18.7
2019-03-22T15:24:50.555Z,18.6
2019-03-22T15:26:49.833Z,18.7
2019-03-22T15:28:50.159Z,18.6
2019-03-22T15:30:50.327Z,18.7
2019-03-22T15:32:50.178Z,18.7
2019-03-22T15:34:50.177Z,18.6
2019-03-22T15:36:50.415Z,18.7
2019-03-22T15:38:51.359Z,18.6
2019-03-22T15:40:50.606Z,18.6
2019-03-22T15:42:50.658Z,18.6
2019-03-22T15:44:49.913Z,18.6
2019-03-22T15:46:50.257Z,18.6
2019-03-22T15:48:50.384Z,18.6
2019-03-22T15:50:50.396Z,18.6
2019-03-22T15:52:50.417Z,18.6
2019-03-22T15:54:50.424Z,18.5
2019-03-22T15:56:50.597Z,18.5
2019-03-22T15:58:50.572Z,18.5
2019-03-22T16:00:50.549Z,18.5
2019-03-22T16:02:49.761Z,18.5
2019-03-22T16:04:50.168Z,18.4
2019-03-22T16:06:50.527Z,18.4
2019-03-22T16:08:50.510Z,18.3
2019-03-22T16:10:50.530Z,18.4
2019-03-22T16:12:50.668Z,18.3
2019-03-22T16:14:49.793Z,18.3
2019-03-22T16:16:49.959Z,18.3
2019-03-22T16:18:49.999Z,18.2
2019-03-22T16:21:00.558Z,18.2
2019-03-22T16:22:50.537Z,18.1
2019-03-22T16:24:50.670Z,18.1
2019-03-22T16:26:49.831Z,18.02
2019-03-22T16:28:49.916Z,17.92
2019-03-22T16:30:49.987Z,17.81
2019-03-22T16:32:50.116Z,17.73
2019-03-22T16:34:50.564Z,17.65
2019-03-22T16:36:49.762Z,17.56
2019-03-22T16:38:49.810Z,17.49
2019-03-22T16:40:49.917Z,17.41
2019-03-22T16:42:49.895Z,17.35
2019-03-22T16:44:49.902Z,17.24
2019-03-22T16:46:50.125Z,17.18
2019-03-22T16:48:50.259Z,17.07
2019-03-22T16:50:50.349Z,17.03
2019-03-22T16:52:50.434Z,16.95
2019-03-22T16:54:50.496Z,16.78
2019-03-22T16:56:50.684Z,16.70
2019-03-22T16:58:50.662Z,16.56
2019-03-22T17:00:50.376Z,16.50
2019-03-22T17:02:50.462Z,16.36
2019-03-22T17:04:49.928Z,16.30
2019-03-22T17:06:50.160Z,16.13
2019-03-22T17:08:50.202Z,16.00
2019-03-22T17:10:50.334Z,15.93
2019-03-22T17:12:50.361Z,15.76
2019-03-22T17:14:50.415Z,15.65
2019-03-22T17:16:50.647Z,15.41
2019-03-22T17:18:49.806Z,15.41
2019-03-22T17:20:49.885Z,15.12
2019-03-22T17:22:50.004Z,14.98
2019-03-22T17:24:50.126Z,14.98
2019-03-22T17:26:50.325Z,14.75
2019-03-22T17:28:50.459Z,14.63
2019-03-22T17:30:50.440Z,14.51
2019-03-22T17:32:50.457Z,14.27
2019-03-22T17:34:49.935Z,14.02
2019-03-22T17:36:50.230Z,13.83
2019-03-22T17:38:50.280Z,13.72
2019-03-22T17:40:50.344Z,13.55
2019-03-22T17:42:50.421Z,13.38
2019-03-22T17:44:50.540Z,13.23
2019-03-22T17:46:49.771Z,13.09
2019-03-22T17:48:49.846Z,12.92
2019-03-22T17:50:49.863Z,12.84
2019-03-22T17:52:49.951Z,12.72
2019-03-22T17:54:50.001Z,12.65
2019-03-22T17:56:50.258Z,12.64
2019-03-22T17:58:50.309Z,12.66
2019-03-22T18:00:50.445Z,12.61
2019-03-22T18:02:50.488Z,12.46
2019-03-22T18:04:49.888Z,12.34
2019-03-22T18:06:49.983Z,12.17
2019-03-22T18:08:50.072Z,12.05
2019-03-22T18:10:50.159Z,11.89
2019-03-22T18:12:50.207Z,11.81
2019-03-22T18:14:50.251Z,11.66
2019-03-22T18:16:50.378Z,11.52
2019-03-22T18:18:50.521Z,11.42
2019-03-22T18:20:50.610Z,11.34
2019-03-22T18:22:50.715Z,11.30
2019-03-22T18:24:49.797Z,11.17
2019-03-22T18:26:50.111Z,11.07
2019-03-22T18:28:50.256Z,11.01
2019-03-22T18:30:50.479Z,10.97
2019-03-22T18:32:50.492Z,10.82
2019-03-22T18:34:49.934Z,10.66
2019-03-22T18:36:50.199Z,10.58
2019-03-22T18:38:50.257Z,10.47
2019-03-22T18:40:50.302Z,10.37
2019-03-22T18:42:50.442Z,10.32
2019-03-22T18:44:50.567Z,10.19
2019-03-22T18:46:49.823Z,10.11
2019-03-22T18:48:49.914Z,10.06
2019-03-22T18:50:57.484Z,10.01
2019-03-22T18:52:50.557Z,9.87
2019-03-22T18:54:50.549Z,9.76
2019-03-22T18:56:49.782Z,9.65
2019-03-22T18:58:49.867Z,9.58
2019-03-22T19:00:50.233Z,9.51
2019-03-22T19:02:50.275Z,9.46
2019-03-22T19:04:50.645Z,9.43
2019-03-22T19:06:49.980Z,9.42
2019-03-22T19:08:50.003Z,9.42
2019-03-22T19:10:50.145Z,9.42
2019-03-22T19:12:50.190Z,9.40
2019-03-22T19:14:50.355Z,9.39
2019-03-22T19:16:50.581Z,9.29
2019-03-22T19:18:49.731Z,9.24
2019-03-22T19:20:49.808Z,9.20
2019-03-22T19:22:50.061Z,9.15
2019-03-22T19:24:50.156Z,9.12
2019-03-22T19:26:50.350Z,9.05
2019-03-22T19:28:50.502Z,8.98
2019-03-22T19:30:50.590Z,8.95
2019-03-22T19:32:50.622Z,8.90
2019-03-22T19:34:55.035Z,8.80
2019-03-22T19:36:50.337Z,8.73
2019-03-22T19:38:50.456Z,8.63
2019-03-22T19:40:50.490Z,8.55
2019-03-22T19:42:50.531Z,8.50
2019-03-22T19:44:50.606Z,8.45
2019-03-22T19:46:49.953Z,8.43
2019-03-22T19:48:50.039Z,8.39
2019-03-22T19:50:50.193Z,8.34
2019-03-22T19:52:50.171Z,8.29
2019-03-22T19:54:50.280Z,8.22
2019-03-22T19:56:50.386Z,8.14
2019-03-22T19:58:50.420Z,8.10
2019-03-22T20:00:50.437Z,8.06
2019-03-22T20:02:50.404Z,8.01
2019-03-22T20:04:49.981Z,7.94
2019-03-22T20:06:50.179Z,7.91
2019-03-22T20:08:50.233Z,7.87
2019-03-22T20:10:50.234Z,7.84
2019-03-22T20:12:50.341Z,7.84
2019-03-22T20:14:50.494Z,7.83
2019-03-22T20:16:49.823Z,7.81
2019-03-22T20:18:49.845Z,7.72
2019-03-22T20:20:49.963Z,7.68
2019-03-22T20:22:50.008Z,7.64
2019-03-22T20:24:50.101Z,7.65
2019-03-22T20:26:50.380Z,7.64
2019-03-22T20:28:50.453Z,7.62
2019-03-22T20:30:50.621Z,7.60
2019-03-22T20:32:50.655Z,7.56
2019-03-22T20:34:50.175Z,7.51
2019-03-22T20:36:50.365Z,7.50
2019-03-22T20:38:50.390Z,7.45
2019-03-22T20:40:50.506Z,7.43
2019-03-22T20:42:50.616Z,7.40
2019-03-22T20:44:49.703Z,7.40
2019-03-22T20:46:49.926Z,7.33
2019-03-22T20:48:49.945Z,7.32
2019-03-22T20:50:49.980Z,7.33
2019-03-22T20:52:50.016Z,7.29
2019-03-22T20:54:50.075Z,7.28
2019-03-22T20:56:50.411Z,7.27
2019-03-22T20:58:50.553Z,7.16
2019-03-22T21:00:49.682Z,7.10
2019-03-22T21:02:49.738Z,7.04
2019-03-22T21:04:50.127Z,6.98
2019-03-22T21:06:50.459Z,6.91
2019-03-22T21:08:50.666Z,6.88
2019-03-22T21:10:49.756Z,6.83
2019-03-22T21:12:49.779Z,6.80
2019-03-22T21:14:49.855Z,6.73
2019-03-22T21:16:50.077Z,6.68
2019-03-22T21:18:50.179Z,6.64
2019-03-22T21:20:50.299Z,6.60
2019-03-22T21:22:50.341Z,6.59
2019-03-22T21:24:50.478Z,6.57
2019-03-22T21:26:49.776Z,6.59
2019-03-22T21:28:49.948Z,6.57
2019-03-22T21:30:50.023Z,6.55
2019-03-22T21:32:50.100Z,6.51
2019-03-22T21:34:50.611Z,6.47
2019-03-22T21:36:49.995Z,6.45
2019-03-22T21:38:50.174Z,6.41
2019-03-22T21:40:50.189Z,6.31
2019-03-22T21:42:50.268Z,6.27
2019-03-22T21:44:50.327Z,6.23
2019-03-22T21:46:50.530Z,6.23
2019-03-22T21:48:50.615Z,6.18
2019-03-22T21:50:50.661Z,6.16
2019-03-22T21:52:49.790Z,6.13
2019-03-22T21:54:49.889Z,6.10
2019-03-22T21:56:50.135Z,6.06
2019-03-22T21:58:50.235Z,6.05
2019-03-22T22:00:50.397Z,6.06
2019-03-22T22:02:50.480Z,6.06
2019-03-22T22:04:49.863Z,6.04
2019-03-22T22:06:50.132Z,5.97
2019-03-22T22:08:50.184Z,5.95
2019-03-22T22:11:00.472Z,5.84
2019-03-22T22:12:50.487Z,5.78
2019-03-22T22:14:50.491Z,5.74
2019-03-22T22:16:49.759Z,5.70
2019-03-22T22:18:49.814Z,5.68
2019-03-22T22:20:49.921Z,5.66
2019-03-22T22:22:50.045Z,5.62
2019-03-22T22:24:50.169Z,5.57
2019-03-22T22:26:50.588Z,5.54
2019-03-22T22:28:50.674Z,5.50
2019-03-22T22:30:49.689Z,5.48
2019-03-22T22:32:49.837Z,5.44
2019-03-22T22:34:50.358Z,5.42
2019-03-22T22:36:50.684Z,5.42
2019-03-22T22:38:49.700Z,5.36
2019-03-22T22:40:49.831Z,5.31
2019-03-22T22:42:49.963Z,5.29
2019-03-22T22:44:50.001Z,5.24
2019-03-22T22:46:50.264Z,5.22
2019-03-22T22:48:50.264Z,5.25
2019-03-22T22:50:50.326Z,5.32
2019-03-22T22:52:50.419Z,5.30
2019-03-22T22:54:50.589Z,5.28
2019-03-22T22:56:49.697Z,5.23
2019-03-22T22:58:49.750Z,5.17
2019-03-22T23:00:49.856Z,5.13
2019-03-22T23:02:49.988Z,5.09
2019-03-22T23:04:50.375Z,5.06
2019-03-22T23:06:50.555Z,5.01
2019-03-22T23:08:50.611Z,5.01
2019-03-22T23:10:50.628Z,4.96
2019-03-22T23:12:49.700Z,4.94
2019-03-22T23:14:50.686Z,4.88
2019-03-22T23:16:49.875Z,4.86
2019-03-22T23:18:49.886Z,4.87
2019-03-22T23:20:50.005Z,4.84
2019-03-22T23:22:50.090Z,4.81
2019-03-22T23:24:50.257Z,4.75
2019-03-22T23:26:50.374Z,4.73
2019-03-22T23:28:50.473Z,4.70
2019-03-22T23:30:50.517Z,4.69
2019-03-22T23:32:50.681Z,4.65
2019-03-22T23:34:59.667Z,4.63
2019-03-22T23:36:49.948Z,4.55
2019-03-22T23:38:50.036Z,4.51
2019-03-22T23:40:49.993Z,4.49
2019-03-22T23:42:50.059Z,4.45
2019-03-22T23:44:50.177Z,4.42
2019-03-22T23:46:50.483Z,4.40
2019-03-22T23:48:50.517Z,4.40
2019-03-22T23:50:50.672Z,4.38
2019-03-22T23:52:49.771Z,4.38
2019-03-22T23:54:49.839Z,4.34
2019-03-22T23:56:50.168Z,4.29
2019-03-22T23:58:50.176Z,4.29
